sensor_id;sensor_type;location;lat;lon;timestamp;pressure;altitude;pressure_sealevel;temperature;humidity
65329;BME280;51941;52.210;5.158;2022-12-18T00:00:46;102757.28;;;-2.52;84.54
65329;BME280;51941;52.210;5.158;2022-12-18T00:03:13;102720.41;;;-2.69;84.70
65329;BME280;51941;52.210;5.158;2022-12-18T00:05:47;102745.25;;;-2.53;84.48
65329;BME280;51941;52.210;5.158;2022-12-18T00:08:14;102760.75;;;-2.65;84.65
65329;BME280;51941;52.210;5.158;2022-12-18T00:10:41;102759.53;;;-2.60;84.65
65329;BME280;51941;52.210;5.158;2022-12-18T00:13:08;102742.22;;;-2.59;84.79
65329;BME280;51941;52.210;5.158;2022-12-18T00:15:35;102742.84;;;-2.56;84.66
65329;BME280;51941;52.210;5.158;2022-12-18T00:18:03;102743.84;;;-2.58;84.73
65329;BME280;51941;52.210;5.158;2022-12-18T00:20:30;102755.72;;;-2.54;84.76
65329;BME280;51941;52.210;5.158;2022-12-18T00:22:58;102685.56;;;-2.92;84.64
65329;BME280;51941;52.210;5.158;2022-12-18T00:25:25;102731.03;;;-2.60;84.64
65329;BME280;51941;52.210;5.158;2022-12-18T00:27:51;102750.78;;;-2.44;84.58
65329;BME280;51941;52.210;5.158;2022-12-18T00:30:18;102747.63;;;-2.49;84.52
65329;BME280;51941;52.210;5.158;2022-12-18T00:32:45;102747.75;;;-2.51;84.58
65329;BME280;51941;52.210;5.158;2022-12-18T00:35:12;102744.59;;;-2.56;84.54
65329;BME280;51941;52.210;5.158;2022-12-18T00:37:39;102744.16;;;-2.63;84.29
65329;BME280;51941;52.210;5.158;2022-12-18T00:40:08;102682.47;;;-2.97;84.37
65329;BME280;51941;52.210;5.158;2022-12-18T00:42:35;102743.66;;;-2.68;84.46
65329;BME280;51941;52.210;5.158;2022-12-18T00:45:20;102747.34;;;-2.72;84.45
65329;BME280;51941;52.210;5.158;2022-12-18T00:47:47;102750.78;;;-2.71;84.44
65329;BME280;51941;52.210;5.158;2022-12-18T00:50:14;102751.69;;;-2.72;84.42
65329;BME280;51941;52.210;5.158;2022-12-18T00:52:40;102754.19;;;-2.71;84.62
65329;BME280;51941;52.210;5.158;2022-12-18T00:55:09;102760.84;;;-2.67;84.46
65329;BME280;51941;52.210;5.158;2022-12-18T00:57:36;102685.22;;;-3.00;84.51
65329;BME280;51941;52.210;5.158;2022-12-18T01:00:04;102733.38;;;-2.69;84.47
65329;BME280;51941;52.210;5.158;2022-12-18T01:02:32;102745.97;;;-2.77;84.21
65329;BME280;51941;52.210;5.158;2022-12-18T01:04:58;102738.50;;;-2.82;84.37
65329;BME280;51941;52.210;5.158;2022-12-18T01:07:25;102751.25;;;-2.79;84.42
65329;BME280;51941;52.210;5.158;2022-12-18T01:09:52;102747.00;;;-2.80;84.35
65329;BME280;51941;52.210;5.158;2022-12-18T01:12:20;102755.88;;;-2.84;84.10
65329;BME280;51941;52.210;5.158;2022-12-18T01:14:49;102738.31;;;-2.93;84.03
65329;BME280;51941;52.210;5.158;2022-12-18T01:17:16;102746.56;;;-2.86;84.13
65329;BME280;51941;52.210;5.158;2022-12-18T01:19:43;102729.84;;;-2.95;84.07
65329;BME280;51941;52.210;5.158;2022-12-18T01:22:09;102709.06;;;-3.22;84.06
65329;BME280;51941;52.210;5.158;2022-12-18T01:24:37;102747.72;;;-3.05;83.93
65329;BME280;51941;52.210;5.158;2022-12-18T01:27:03;102740.28;;;-3.11;83.94
65329;BME280;51941;52.210;5.158;2022-12-18T01:29:32;102756.50;;;-3.07;83.89
65329;BME280;51941;52.210;5.158;2022-12-18T01:31:58;102746.44;;;-3.12;84.01
65329;BME280;51941;52.210;5.158;2022-12-18T01:34:25;102757.63;;;-3.11;84.23
65329;BME280;51941;52.210;5.158;2022-12-18T01:36:52;102721.00;;;-3.34;84.25
65329;BME280;51941;52.210;5.158;2022-12-18T01:39:19;102759.75;;;-3.18;84.07
65329;BME280;51941;52.210;5.158;2022-12-18T01:41:46;102754.13;;;-3.24;84.15
65329;BME280;51941;52.210;5.158;2022-12-18T01:44:54;102739.66;;;-3.29;84.20
65329;BME280;51941;52.210;5.158;2022-12-18T01:47:24;102747.00;;;-3.35;84.32
65329;BME280;51941;52.210;5.158;2022-12-18T01:49:52;102731.09;;;-3.43;84.28
65329;BME280;51941;52.210;5.158;2022-12-18T01:52:20;102751.81;;;-3.43;84.38
65329;BME280;51941;52.210;5.158;2022-12-18T01:54:48;102723.44;;;-3.73;84.27
65329;BME280;51941;52.210;5.158;2022-12-18T01:57:18;102774.56;;;-3.48;84.31
65329;BME280;51941;52.210;5.158;2022-12-18T01:59:49;102785.66;;;-3.46;84.42
65329;BME280;51941;52.210;5.158;2022-12-18T02:02:20;102778.91;;;-3.49;84.58
65329;BME280;51941;52.210;5.158;2022-12-18T02:04:47;102784.38;;;-3.39;84.72
65329;BME280;51941;52.210;5.158;2022-12-18T02:07:18;102759.19;;;-3.51;84.63
65329;BME280;51941;52.210;5.158;2022-12-18T02:09:54;102797.03;;;-3.35;84.66
65329;BME280;51941;52.210;5.158;2022-12-18T02:12:25;102799.53;;;-3.33;84.61
65329;BME280;51941;52.210;5.158;2022-12-18T02:15:00;102802.56;;;-3.41;84.79
65329;BME280;51941;52.210;5.158;2022-12-18T02:17:35;102809.44;;;-3.40;84.74
65329;BME280;51941;52.210;5.158;2022-12-18T02:20:09;102808.97;;;-3.46;84.59
65329;BME280;51941;52.210;5.158;2022-12-18T02:22:47;102811.19;;;-3.40;84.88
65329;BME280;51941;52.210;5.158;2022-12-18T02:25:29;102808.38;;;-3.37;84.75
65329;BME280;51941;52.210;5.158;2022-12-18T02:28:04;102805.72;;;-3.36;84.67
65329;BME280;51941;52.210;5.158;2022-12-18T02:30:34;102795.34;;;-3.36;nan
65329;BME280;51941;52.210;5.158;2022-12-18T02:33:04;102797.22;;;-3.38;84.59
65329;BME280;51941;52.210;5.158;2022-12-18T02:35:33;102793.59;;;-3.35;84.62
65329;BME280;51941;52.210;5.158;2022-12-18T02:38:03;102798.88;;;-3.37;84.41
65329;BME280;51941;52.210;5.158;2022-12-18T02:40:34;102800.63;;;-3.37;84.72
65329;BME280;51941;52.210;5.158;2022-12-18T02:43:07;102776.13;;;-3.32;84.68
65329;BME280;51941;52.210;5.158;2022-12-18T02:45:34;102767.91;;;-3.24;84.59
65329;BME280;51941;52.210;5.158;2022-12-18T02:48:02;102705.69;;;-3.65;84.44
65329;BME280;51941;52.210;5.158;2022-12-18T02:50:35;102764.66;;;-3.28;84.47
65329;BME280;51941;52.210;5.158;2022-12-18T02:53:11;102764.84;;;-3.31;84.38
65329;BME280;51941;52.210;5.158;2022-12-18T02:55:51;102757.25;;;-3.34;84.06
65329;BME280;51941;52.210;5.158;2022-12-18T02:58:27;102753.38;;;-3.41;84.08
65329;BME280;51941;52.210;5.158;2022-12-18T03:01:06;102748.69;;;-3.48;84.04
65329;BME280;51941;52.210;5.158;2022-12-18T03:03:41;102747.81;;;-3.63;83.79
65329;BME280;51941;52.210;5.158;2022-12-18T03:06:14;102745.06;;;-3.74;83.76
65329;BME280;51941;52.210;5.158;2022-12-18T03:08:49;102743.94;;;-3.84;83.75
65329;BME280;51941;52.210;5.158;2022-12-18T03:11:18;102722.19;;;-4.10;83.83
65329;BME280;51941;52.210;5.158;2022-12-18T03:14:07;102752.69;;;-4.01;83.79
65329;BME280;51941;52.210;5.158;2022-12-18T03:16:36;102742.88;;;-4.10;83.87
65329;BME280;51941;52.210;5.158;2022-12-18T03:19:07;102740.44;;;-4.13;83.94
65329;BME280;51941;52.210;5.158;2022-12-18T03:21:40;102733.88;;;-4.19;84.11
65329;BME280;51941;52.210;5.158;2022-12-18T03:24:10;102725.47;;;-4.22;83.99
65329;BME280;51941;52.210;5.158;2022-12-18T03:26:41;102717.06;;;-4.26;83.96
65329;BME280;51941;52.210;5.158;2022-12-18T03:29:18;102727.28;;;-4.24;84.06
65329;BME280;51941;52.210;5.158;2022-12-18T03:31:51;102728.41;;;-4.28;84.20
65329;BME280;51941;52.210;5.158;2022-12-18T03:34:24;102720.81;;;-4.31;84.23
65329;BME280;51941;52.210;5.158;2022-12-18T03:36:54;102652.56;;;-4.73;84.29
65329;BME280;51941;52.210;5.158;2022-12-18T03:39:22;102716.75;;;-4.35;84.38
65329;BME280;51941;52.210;5.158;2022-12-18T03:42:00;102711.00;;;-4.41;84.41
65329;BME280;51941;52.210;5.158;2022-12-18T03:44:45;102713.88;;;-4.45;84.38
65329;BME280;51941;52.210;5.158;2022-12-18T03:47:16;102708.84;;;-4.48;84.35
65329;BME280;51941;52.210;5.158;2022-12-18T03:49:52;102710.69;;;-4.50;84.32
65329;BME280;51941;52.210;5.158;2022-12-18T03:52:27;102705.72;;;-4.53;84.61
65329;BME280;51941;52.210;5.158;2022-12-18T03:54:58;102670.91;;;-4.78;84.65
65329;BME280;51941;52.210;5.158;2022-12-18T03:57:29;102702.91;;;-4.64;84.58
65329;BME280;51941;52.210;5.158;2022-12-18T04:00:01;102698.81;;;-4.68;84.58
65329;BME280;51941;52.210;5.158;2022-12-18T04:02:42;102698.41;;;-4.76;84.29
65329;BME280;51941;52.210;5.158;2022-12-18T04:05:11;102689.34;;;-4.84;84.64
65329;BME280;51941;52.210;5.158;2022-12-18T04:07:41;102683.94;;;-4.79;84.50
65329;BME280;51941;52.210;5.158;2022-12-18T04:10:10;102632.97;;;-5.07;84.62
65329;BME280;51941;52.210;5.158;2022-12-18T04:12:38;102667.59;;;-4.80;84.71
65329;BME280;51941;52.210;5.158;2022-12-18T04:15:11;102627.72;;;-5.05;84.66
65329;BME280;51941;52.210;5.158;2022-12-18T04:17:42;102665.16;;;-4.83;84.57
65329;BME280;51941;52.210;5.158;2022-12-18T04:20:17;102627.81;;;-5.07;84.51
65329;BME280;51941;52.210;5.158;2022-12-18T04:22:44;102670.25;;;-4.81;84.62
65329;BME280;51941;52.210;5.158;2022-12-18T04:25:11;102672.16;;;-4.85;84.59
65329;BME280;51941;52.210;5.158;2022-12-18T04:27:47;102667.91;;;-4.86;84.35
65329;BME280;51941;52.210;5.158;2022-12-18T04:30:16;102672.44;;;-4.89;84.40
65329;BME280;51941;52.210;5.158;2022-12-18T04:32:43;102672.03;;;-4.97;84.39
65329;BME280;51941;52.210;5.158;2022-12-18T04:35:10;102679.78;;;-4.97;84.25
65329;BME280;51941;52.210;5.158;2022-12-18T04:37:40;102680.78;;;-5.00;84.35
65329;BME280;51941;52.210;5.158;2022-12-18T04:40:08;102678.53;;;-5.06;84.24
65329;BME280;51941;52.210;5.158;2022-12-18T04:42:40;102695.09;;;-5.10;84.11
65329;BME280;51941;52.210;5.158;2022-12-18T04:45:07;102695.53;;;-5.18;83.91
65329;BME280;51941;52.210;5.158;2022-12-18T04:47:36;102702.50;;;-5.20;83.94
65329;BME280;51941;52.210;5.158;2022-12-18T04:50:03;102679.97;;;-5.32;83.83
65329;BME280;51941;52.210;5.158;2022-12-18T04:52:30;102690.78;;;-5.25;84.03
65329;BME280;51941;52.210;5.158;2022-12-18T04:54:56;102653.88;;;-5.59;83.84
65329;BME280;51941;52.210;5.158;2022-12-18T04:57:23;102713.59;;;-5.33;84.10
65329;BME280;51941;52.210;5.158;2022-12-18T04:59:50;102721.31;;;-5.33;84.09
65329;BME280;51941;52.210;5.158;2022-12-18T05:02:16;102724.91;;;-5.36;83.84
65329;BME280;51941;52.210;5.158;2022-12-18T05:04:44;102714.16;;;-5.44;84.01
65329;BME280;51941;52.210;5.158;2022-12-18T05:07:11;102716.66;;;-5.42;84.04
65329;BME280;51941;52.210;5.158;2022-12-18T05:09:38;102722.78;;;-5.45;83.99
65329;BME280;51941;52.210;5.158;2022-12-18T05:12:05;102718.47;;;-5.44;84.08
65329;BME280;51941;52.210;5.158;2022-12-18T05:14:32;102684.88;;;-5.76;83.90
65329;BME280;51941;52.210;5.158;2022-12-18T05:16:58;102723.72;;;-5.46;84.05
65329;BME280;51941;52.210;5.158;2022-12-18T05:19:25;102725.63;;;-5.49;84.28
65329;BME280;51941;52.210;5.158;2022-12-18T05:21:53;102732.53;;;-5.50;84.08
65329;BME280;51941;52.210;5.158;2022-12-18T05:24:20;102735.13;;;-5.50;84.15
65329;BME280;51941;52.210;5.158;2022-12-18T05:26:47;102744.53;;;-5.49;84.10
65329;BME280;51941;52.210;5.158;2022-12-18T05:29:13;102719.69;;;-5.67;84.18
65329;BME280;51941;52.210;5.158;2022-12-18T05:31:40;102744.44;;;-5.47;84.12
65329;BME280;51941;52.210;5.158;2022-12-18T05:34:07;102751.19;;;-5.45;84.17
65329;BME280;51941;52.210;5.158;2022-12-18T05:36:34;102740.09;;;-5.47;84.20
65329;BME280;51941;52.210;5.158;2022-12-18T05:39:02;102733.97;;;-5.44;84.10
65329;BME280;51941;52.210;5.158;2022-12-18T05:41:29;102728.72;;;-5.43;84.00
65329;BME280;51941;52.210;5.158;2022-12-18T05:43:56;102722.72;;;-5.43;83.90
65329;BME280;51941;52.210;5.158;2022-12-18T05:46:22;102716.72;;;-5.44;83.64
65329;BME280;51941;52.210;5.158;2022-12-18T05:48:49;102715.06;;;-5.45;83.94
65329;BME280;51941;52.210;5.158;2022-12-18T05:51:19;102709.13;;;-5.47;83.71
65329;BME280;51941;52.210;5.158;2022-12-18T05:53:46;102707.66;;;-5.51;83.65
65329;BME280;51941;52.210;5.158;2022-12-18T05:56:17;102705.66;;;-5.46;83.71
65329;BME280;51941;52.210;5.158;2022-12-18T05:58:44;102702.56;;;-5.52;83.64
65329;BME280;51941;52.210;5.158;2022-12-18T06:01:13;102701.56;;;-5.50;83.78
65329;BME280;51941;52.210;5.158;2022-12-18T06:03:40;102699.16;;;-5.53;83.74
65329;BME280;51941;52.210;5.158;2022-12-18T06:06:13;102705.28;;;-5.56;83.65
65329;BME280;51941;52.210;5.158;2022-12-18T06:08:40;102639.25;;;-5.91;83.53
65329;BME280;51941;52.210;5.158;2022-12-18T06:11:07;102689.16;;;-5.59;83.50
65329;BME280;51941;52.210;5.158;2022-12-18T06:13:35;102690.84;;;-5.58;83.66
65329;BME280;51941;52.210;5.158;2022-12-18T06:16:03;102690.91;;;-5.60;83.63
65329;BME280;51941;52.210;5.158;2022-12-18T06:18:29;102682.41;;;-5.62;83.36
65329;BME280;51941;52.210;5.158;2022-12-18T06:20:57;102686.66;;;-5.61;83.49
65329;BME280;51941;52.210;5.158;2022-12-18T06:23:24;102687.56;;;-5.62;83.49
65329;BME280;51941;52.210;5.158;2022-12-18T06:25:51;102684.22;;;-5.64;83.31
65329;BME280;51941;52.210;5.158;2022-12-18T06:28:18;102689.47;;;-5.65;83.38
65329;BME280;51941;52.210;5.158;2022-12-18T06:30:46;102687.91;;;-5.68;83.47
65329;BME280;51941;52.210;5.158;2022-12-18T06:33:15;102681.22;;;-5.72;83.13
65329;BME280;51941;52.210;5.158;2022-12-18T06:35:42;102675.41;;;-5.75;83.28
65329;BME280;51941;52.210;5.158;2022-12-18T06:38:09;102673.03;;;-5.80;83.14
65329;BME280;51941;52.210;5.158;2022-12-18T06:40:37;102667.19;;;-5.83;83.02
65329;BME280;51941;52.210;5.158;2022-12-18T06:43:03;102662.72;;;-5.80;83.31
65329;BME280;51941;52.210;5.158;2022-12-18T06:45:30;102652.41;;;-5.80;83.32
65329;BME280;51941;52.210;5.158;2022-12-18T06:47:58;102641.25;;;-5.80;83.22
65329;BME280;51941;52.210;5.158;2022-12-18T06:50:25;102642.78;;;-5.76;83.29
65329;BME280;51941;52.210;5.158;2022-12-18T06:52:52;102646.84;;;-5.72;83.40
65329;BME280;51941;52.210;5.158;2022-12-18T06:55:18;102620.28;;;-5.90;83.24
65329;BME280;51941;52.210;5.158;2022-12-18T06:57:45;102646.63;;;-5.68;83.33
65329;BME280;51941;52.210;5.158;2022-12-18T07:00:13;102637.78;;;-5.64;83.57
65329;BME280;51941;52.210;5.158;2022-12-18T07:02:39;102633.13;;;-5.57;83.59
65329;BME280;51941;52.210;5.158;2022-12-18T07:05:08;102628.81;;;-5.57;83.52
65329;BME280;51941;52.210;5.158;2022-12-18T07:07:35;102632.81;;;-5.51;83.33
65329;BME280;51941;52.210;5.158;2022-12-18T07:10:02;102599.34;;;-5.68;83.34
65329;BME280;51941;52.210;5.158;2022-12-18T07:12:29;102626.75;;;-5.50;83.35
65329;BME280;51941;52.210;5.158;2022-12-18T07:14:55;102632.75;;;-5.49;83.26
65329;BME280;51941;52.210;5.158;2022-12-18T07:17:22;102631.00;;;-5.49;83.01
65329;BME280;51941;52.210;5.158;2022-12-18T07:19:49;102622.25;;;-5.46;83.37
65329;BME280;51941;52.210;5.158;2022-12-18T07:22:17;102627.47;;;-5.48;83.11
65329;BME280;51941;52.210;5.158;2022-12-18T07:24:44;102619.59;;;-5.45;83.08
65329;BME280;51941;52.210;5.158;2022-12-18T07:27:10;102624.66;;;-5.43;83.10
65329;BME280;51941;52.210;5.158;2022-12-18T07:29:37;102622.25;;;-5.46;83.07
65329;BME280;51941;52.210;5.158;2022-12-18T07:32:04;102611.91;;;-5.46;82.81
65329;BME280;51941;52.210;5.158;2022-12-18T07:34:32;102612.84;;;-5.47;83.02
65329;BME280;51941;52.210;5.158;2022-12-18T07:36:59;102597.53;;;-5.50;83.01
65329;BME280;51941;52.210;5.158;2022-12-18T07:39:27;102598.25;;;-5.48;82.77
65329;BME280;51941;52.210;5.158;2022-12-18T07:41:53;102593.03;;;-5.47;82.90
65329;BME280;51941;52.210;5.158;2022-12-18T07:44:34;102584.44;;;-5.47;82.78
65329;BME280;51941;52.210;5.158;2022-12-18T07:47:01;102581.88;;;-5.47;82.89
65329;BME280;51941;52.210;5.158;2022-12-18T07:49:28;102579.22;;;-5.46;82.93
65329;BME280;51941;52.210;5.158;2022-12-18T07:51:55;102574.88;;;-5.45;82.91
65329;BME280;51941;52.210;5.158;2022-12-18T07:54:22;102570.47;;;-5.43;82.70
65329;BME280;51941;52.210;5.158;2022-12-18T07:56:51;102569.38;;;-5.39;82.92
65329;BME280;51941;52.210;5.158;2022-12-18T07:59:18;102570.88;;;-5.35;82.96
65329;BME280;51941;52.210;5.158;2022-12-18T08:01:45;102568.88;;;-5.30;82.77
65329;BME280;51941;52.210;5.158;2022-12-18T08:04:11;102504.56;;;-5.65;82.89
65329;BME280;51941;52.210;5.158;2022-12-18T08:06:38;102566.69;;;-5.22;82.93
65329;BME280;51941;52.210;5.158;2022-12-18T08:09:05;102516.28;;;-5.43;82.84
65329;BME280;51941;52.210;5.158;2022-12-18T08:11:33;102570.53;;;-5.13;82.77
65329;BME280;51941;52.210;5.158;2022-12-18T08:14:01;102565.94;;;-5.08;82.76
65329;BME280;51941;52.210;5.158;2022-12-18T08:16:28;102568.44;;;-5.07;82.60
65329;BME280;51941;52.210;5.158;2022-12-18T08:18:55;102581.66;;;-4.97;82.46
65329;BME280;51941;52.210;5.158;2022-12-18T08:21:25;102565.44;;;-5.15;82.43
65329;BME280;51941;52.210;5.158;2022-12-18T08:23:54;102594.28;;;-4.93;82.48
65329;BME280;51941;52.210;5.158;2022-12-18T08:26:21;102583.56;;;-5.01;82.04
65329;BME280;51941;52.210;5.158;2022-12-18T08:28:49;102589.97;;;-4.92;82.03
65329;BME280;51941;52.210;5.158;2022-12-18T08:31:18;102600.13;;;-4.89;82.31
65329;BME280;51941;52.210;5.158;2022-12-18T08:33:45;102598.19;;;-4.86;82.17
65329;BME280;51941;52.210;5.158;2022-12-18T08:36:12;102607.59;;;-4.85;82.01
65329;BME280;51941;52.210;5.158;2022-12-18T08:38:38;102603.25;;;-4.84;82.10
65329;BME280;51941;52.210;5.158;2022-12-18T08:41:06;102585.25;;;-4.86;81.93
65329;BME280;51941;52.210;5.158;2022-12-18T08:43:34;102543.59;;;-5.09;81.98
65329;BME280;51941;52.210;5.158;2022-12-18T08:46:20;102576.28;;;-4.78;82.21
65329;BME280;51941;52.210;5.158;2022-12-18T08:48:48;102539.97;;;-4.91;82.08
65329;BME280;51941;52.210;5.158;2022-12-18T08:51:17;102576.53;;;-4.69;82.25
65329;BME280;51941;52.210;5.158;2022-12-18T08:53:44;102571.88;;;-4.62;82.16
65329;BME280;51941;52.210;5.158;2022-12-18T08:56:12;102575.66;;;-4.54;82.28
65329;BME280;51941;52.210;5.158;2022-12-18T08:58:39;102553.03;;;-4.64;82.16
65329;BME280;51941;52.210;5.158;2022-12-18T09:01:08;102586.84;;;-4.39;82.00
65329;BME280;51941;52.210;5.158;2022-12-18T09:03:36;102565.25;;;-4.38;81.93
65329;BME280;51941;52.210;5.158;2022-12-18T09:06:04;102553.63;;;-4.31;81.98
65329;BME280;51941;52.210;5.158;2022-12-18T09:08:34;102563.50;;;-4.23;81.84
65329;BME280;51941;52.210;5.158;2022-12-18T09:11:02;102567.47;;;-4.18;81.71
65329;BME280;51941;52.210;5.158;2022-12-18T09:13:29;102567.94;;;-4.11;81.55
65329;BME280;51941;52.210;5.158;2022-12-18T09:15:55;102570.78;;;-4.01;81.46
65329;BME280;51941;52.210;5.158;2022-12-18T09:18:23;102585.00;;;-3.94;81.47
65329;BME280;51941;52.210;5.158;2022-12-18T09:20:51;102567.66;;;-3.92;81.36
65329;BME280;51941;52.210;5.158;2022-12-18T09:23:18;102571.97;;;-3.79;81.28
65329;BME280;51941;52.210;5.158;2022-12-18T09:25:45;102567.22;;;-3.72;81.28
65329;BME280;51941;52.210;5.158;2022-12-18T09:28:13;102574.41;;;-3.63;81.18
65329;BME280;51941;52.210;5.158;2022-12-18T09:30:41;102559.63;;;-3.61;81.29
65329;BME280;51941;52.210;5.158;2022-12-18T09:33:09;102552.44;;;-3.56;80.98
65329;BME280;51941;52.210;5.158;2022-12-18T09:35:36;102556.28;;;-3.49;80.89
65329;BME280;51941;52.210;5.158;2022-12-18T09:38:05;102551.19;;;-3.50;81.08
65329;BME280;51941;52.210;5.158;2022-12-18T09:40:36;102548.84;;;-3.41;80.84
65329;BME280;51941;52.210;5.158;2022-12-18T09:43:06;102547.72;;;-3.37;80.64
65329;BME280;51941;52.210;5.158;2022-12-18T09:45:40;102561.97;;;-3.30;80.49
65329;BME280;51941;52.210;5.158;2022-12-18T09:48:10;102554.72;;;-3.24;80.51
65329;BME280;51941;52.210;5.158;2022-12-18T09:50:42;102559.47;;;-3.18;80.53
65329;BME280;51941;52.210;5.158;2022-12-18T09:53:15;102538.06;;;-3.20;80.13
65329;BME280;51941;52.210;5.158;2022-12-18T09:55:45;102495.22;;;-3.39;79.91
65329;BME280;51941;52.210;5.158;2022-12-18T09:58:17;102522.84;;;-3.12;80.05
65329;BME280;51941;52.210;5.158;2022-12-18T10:00:45;102526.91;;;-2.96;79.91
65329;BME280;51941;52.210;5.158;2022-12-18T10:03:14;102516.03;;;-2.88;79.94
65329;BME280;51941;52.210;5.158;2022-12-18T10:05:48;102386.03;;;-3.58;79.74
65329;BME280;51941;52.210;5.158;2022-12-18T10:08:25;102517.59;;;-2.73;79.69
65329;BME280;51941;52.210;5.158;2022-12-18T10:10:57;102419.31;;;-3.39;79.49
65329;BME280;51941;52.210;5.158;2022-12-18T10:13:31;102530.13;;;-2.67;79.28
65329;BME280;51941;52.210;5.158;2022-12-18T10:16:09;102549.66;;;-2.61;79.30
65329;BME280;51941;52.210;5.158;2022-12-18T10:18:57;102552.84;;;-2.58;79.14
65329;BME280;51941;52.210;5.158;2022-12-18T10:21:30;102544.38;;;-2.60;78.86
65329;BME280;51941;52.210;5.158;2022-12-18T10:24:04;102530.56;;;-2.47;79.10
65329;BME280;51941;52.210;5.158;2022-12-18T10:26:34;102520.28;;;-2.36;78.87
65329;BME280;51941;52.210;5.158;2022-12-18T10:29:01;102523.53;;;-2.33;78.87
65329;BME280;51941;52.210;5.158;2022-12-18T10:31:28;102513.66;;;-2.28;78.93
65329;BME280;51941;52.210;5.158;2022-12-18T10:33:55;102529.22;;;-2.28;78.74
65329;BME280;51941;52.210;5.158;2022-12-18T10:36:23;102534.28;;;-2.26;78.48
65329;BME280;51941;52.210;5.158;2022-12-18T10:38:50;102496.13;;;-2.37;78.66
65329;BME280;51941;52.210;5.158;2022-12-18T10:41:27;102515.50;;;-2.17;78.86
65329;BME280;51941;52.210;5.158;2022-12-18T10:44:12;102501.25;;;-2.11;78.56
65329;BME280;51941;52.210;5.158;2022-12-18T10:46:39;102497.53;;;-2.07;78.42
65329;BME280;51941;52.210;5.158;2022-12-18T10:49:18;102461.69;;;-2.26;78.48
65329;BME280;51941;52.210;5.158;2022-12-18T10:51:46;102513.06;;;-1.95;78.36
65329;BME280;51941;52.210;5.158;2022-12-18T10:54:15;102499.53;;;-1.87;78.30
65329;BME280;51941;52.210;5.158;2022-12-18T10:56:44;102489.66;;;-1.82;78.20
65329;BME280;51941;52.210;5.158;2022-12-18T10:59:12;102488.78;;;-1.70;78.16
65329;BME280;51941;52.210;5.158;2022-12-18T11:01:50;102459.28;;;-1.69;77.78
65329;BME280;51941;52.210;5.158;2022-12-18T11:04:20;102465.56;;;-1.60;77.89
65329;BME280;51941;52.210;5.158;2022-12-18T11:06:54;102461.56;;;-1.64;77.20
65329;BME280;51941;52.210;5.158;2022-12-18T11:09:23;102462.97;;;-1.60;77.37
65329;BME280;51941;52.210;5.158;2022-12-18T11:11:53;102463.97;;;-1.50;77.39
65329;BME280;51941;52.210;5.158;2022-12-18T11:14:22;102434.41;;;-1.60;77.04
65329;BME280;51941;52.210;5.158;2022-12-18T11:16:51;102453.59;;;-1.50;76.87
65329;BME280;51941;52.210;5.158;2022-12-18T11:19:23;102434.66;;;-1.63;76.73
65329;BME280;51941;52.210;5.158;2022-12-18T11:21:52;102438.50;;;-1.45;76.59
65329;BME280;51941;52.210;5.158;2022-12-18T11:24:22;102395.72;;;-1.63;76.58
65329;BME280;51941;52.210;5.158;2022-12-18T11:26:54;102446.81;;;-1.29;76.53
65329;BME280;51941;52.210;5.158;2022-12-18T11:29:24;102452.50;;;-1.24;76.42
65329;BME280;51941;52.210;5.158;2022-12-18T11:32:20;102443.53;;;-1.20;76.11
65329;BME280;51941;52.210;5.158;2022-12-18T11:34:52;102446.97;;;-1.08;76.40
65329;BME280;51941;52.210;5.158;2022-12-18T11:37:23;102448.88;;;-0.99;76.50
65329;BME280;51941;52.210;5.158;2022-12-18T11:39:54;102452.31;;;-0.98;76.08
65329;BME280;51941;52.210;5.158;2022-12-18T11:42:27;102442.63;;;-0.96;75.94
65329;BME280;51941;52.210;5.158;2022-12-18T11:44:59;102448.31;;;-0.91;76.01
65329;BME280;51941;52.210;5.158;2022-12-18T11:47:32;102434.97;;;-0.87;76.00
65329;BME280;51941;52.210;5.158;2022-12-18T11:50:02;102437.91;;;-0.80;75.99
65329;BME280;51941;52.210;5.158;2022-12-18T11:52:33;102423.50;;;-0.73;76.07
65329;BME280;51941;52.210;5.158;2022-12-18T11:55:11;102414.06;;;-0.74;75.44
65329;BME280;51941;52.210;5.158;2022-12-18T11:57:45;102408.84;;;-0.63;75.56
65329;BME280;51941;52.210;5.158;2022-12-18T12:00:19;102394.56;;;-0.57;75.48
65329;BME280;51941;52.210;5.158;2022-12-18T12:03:07;102388.25;;;-0.55;75.29
65329;BME280;51941;52.210;5.158;2022-12-18T12:05:48;102386.38;;;-0.53;75.03
65329;BME280;51941;52.210;5.158;2022-12-18T12:08:22;102371.59;;;-0.52;74.73
65329;BME280;51941;52.210;5.158;2022-12-18T12:11:01;102363.91;;;-0.54;74.88
65329;BME280;51941;52.210;5.158;2022-12-18T12:13:41;102363.19;;;-0.56;74.48
65329;BME280;51941;52.210;5.158;2022-12-18T12:16:17;102371.59;;;-0.41;74.66
65329;BME280;51941;52.210;5.158;2022-12-18T12:19:00;102369.81;;;-0.52;74.15
65329;BME280;51941;52.210;5.158;2022-12-18T12:21:35;102364.00;;;-0.44;74.14
65329;BME280;51941;52.210;5.158;2022-12-18T12:24:12;102359.53;;;-0.42;74.19
65329;BME280;51941;52.210;5.158;2022-12-18T12:26:52;102364.34;;;-0.38;74.12
65329;BME280;51941;52.210;5.158;2022-12-18T12:29:35;102361.50;;;-0.35;73.96
65329;BME280;51941;52.210;5.158;2022-12-18T12:32:17;102351.00;;;-0.33;73.90
65329;BME280;51941;52.210;5.158;2022-12-18T12:34:55;102350.50;;;-0.27;74.04
65329;BME280;51941;52.210;5.158;2022-12-18T12:37:34;102344.22;;;-0.25;73.69
65329;BME280;51941;52.210;5.158;2022-12-18T12:40:05;102339.63;;;-0.21;73.72
65329;BME280;51941;52.210;5.158;2022-12-18T12:42:35;102331.81;;;-0.21;73.68
65329;BME280;51941;52.210;5.158;2022-12-18T12:45:39;102327.28;;;-0.19;73.71
65329;BME280;51941;52.210;5.158;2022-12-18T12:48:16;102321.84;;;-0.16;73.74
65329;BME280;51941;52.210;5.158;2022-12-18T12:50:44;102316.88;;;-0.19;73.58
65329;BME280;51941;52.210;5.158;2022-12-18T12:53:19;102319.81;;;-0.12;73.48
65329;BME280;51941;52.210;5.158;2022-12-18T12:55:48;102318.84;;;-0.11;73.39
65329;BME280;51941;52.210;5.158;2022-12-18T12:58:19;102322.44;;;-0.12;73.02
65329;BME280;51941;52.210;5.158;2022-12-18T13:01:00;102315.88;;;-0.07;73.05
65329;BME280;51941;52.210;5.158;2022-12-18T13:03:37;102321.81;;;-0.05;73.06
65329;BME280;51941;52.210;5.158;2022-12-18T13:06:14;102313.84;;;-0.03;73.06